sensor_id;sensor_type;location;lat;lon;timestamp;P1;durP1;ratioP1;P2;durP2;ratioP2
41043;SDS011;51680;49.806;18.774;2023-04-03T00:00:09;7.93;;;4.00;;
41043;SDS011;51680;49.806;18.774;2023-04-03T00:03:11;5.53;;;3.58;;
41043;SDS011;51680;49.806;18.774;2023-04-03T00:06:13;7.78;;;4.35;;
41043;SDS011;51680;49.806;18.774;2023-04-03T00:09:15;5.38;;;3.65;;
41043;SDS011;51680;49.806;18.774;2023-04-03T00:12:18;7.70;;;4.45;;
41043;SDS011;51680;49.806;18.774;2023-04-03T00:15:20;7.85;;;4.30;;
41043;SDS011;51680;49.806;18.774;2023-04-03T00:18:22;7.43;;;4.53;;
41043;SDS011;51680;49.806;18.774;2023-04-03T00:21:23;9.05;;;5.20;;
41043;SDS011;51680;49.806;18.774;2023-04-03T00:24:26;6.78;;;4.60;;
41043;SDS011;51680;49.806;18.774;2023-04-03T00:27:29;7.55;;;4.65;;
41043;SDS011;51680;49.806;18.774;2023-04-03T00:30:31;8.38;;;5.22;;
41043;SDS011;51680;49.806;18.774;2023-04-03T00:33:33;8.57;;;5.53;;
41043;SDS011;51680;49.806;18.774;2023-04-03T00:36:35;7.93;;;5.18;;
41043;SDS011;51680;49.806;18.774;2023-04-03T00:39:36;9.23;;;5.50;;
41043;SDS011;51680;49.806;18.774;2023-04-03T00:42:40;7.78;;;4.80;;
41043;SDS011;51680;49.806;18.774;2023-04-03T00:45:44;8.68;;;4.95;;
41043;SDS011;51680;49.806;18.774;2023-04-03T00:48:48;8.50;;;5.00;;
41043;SDS011;51680;49.806;18.774;2023-04-03T00:51:50;10.00;;;5.47;;
41043;SDS011;51680;49.806;18.774;2023-04-03T00:54:52;8.80;;;5.35;;
41043;SDS011;51680;49.806;18.774;2023-04-03T00:57:59;8.73;;;5.03;;
41043;SDS011;51680;49.806;18.774;2023-04-03T01:01:03;9.13;;;4.70;;
41043;SDS011;51680;49.806;18.774;2023-04-03T01:04:24;11.10;;;5.13;;
41043;SDS011;51680;49.806;18.774;2023-04-03T01:07:29;6.90;;;4.45;;
41043;SDS011;51680;49.806;18.774;2023-04-03T01:10:33;7.80;;;4.78;;
41043;SDS011;51680;49.806;18.774;2023-04-03T01:13:36;7.97;;;4.88;;
41043;SDS011;51680;49.806;18.774;2023-04-03T01:16:40;6.93;;;4.35;;
41043;SDS011;51680;49.806;18.774;2023-04-03T01:19:42;8.02;;;4.80;;
41043;SDS011;51680;49.806;18.774;2023-04-03T01:22:51;9.70;;;4.80;;
41043;SDS011;51680;49.806;18.774;2023-04-03T01:25:58;7.97;;;4.60;;
41043;SDS011;51680;49.806;18.774;2023-04-03T01:29:02;7.40;;;4.25;;
41043;SDS011;51680;49.806;18.774;2023-04-03T01:32:06;6.53;;;4.22;;
41043;SDS011;51680;49.806;18.774;2023-04-03T01:35:08;6.80;;;4.15;;
41043;SDS011;51680;49.806;18.774;2023-04-03T01:38:11;8.35;;;4.28;;
41043;SDS011;51680;49.806;18.774;2023-04-03T01:41:13;7.80;;;4.07;;
41043;SDS011;51680;49.806;18.774;2023-04-03T01:44:16;6.22;;;3.72;;
41043;SDS011;51680;49.806;18.774;2023-04-03T01:47:20;7.53;;;4.15;;
41043;SDS011;51680;49.806;18.774;2023-04-03T01:50:23;6.40;;;4.03;;
41043;SDS011;51680;49.806;18.774;2023-04-03T01:53:25;8.93;;;4.20;;
41043;SDS011;51680;49.806;18.774;2023-04-03T01:56:27;8.55;;;4.72;;
41043;SDS011;51680;49.806;18.774;2023-04-03T01:59:29;8.05;;;5.38;;
41043;SDS011;51680;49.806;18.774;2023-04-03T02:02:32;10.77;;;5.72;;
41043;SDS011;51680;49.806;18.774;2023-04-03T02:05:34;8.80;;;6.13;;
41043;SDS011;51680;49.806;18.774;2023-04-03T02:08:36;9.65;;;5.75;;
41043;SDS011;51680;49.806;18.774;2023-04-03T02:14:41;11.32;;;7.22;;
41043;SDS011;51680;49.806;18.774;2023-04-03T02:17:47;9.63;;;6.47;;
41043;SDS011;51680;49.806;18.774;2023-04-03T02:20:49;10.88;;;5.97;;
41043;SDS011;51680;49.806;18.774;2023-04-03T02:23:50;9.55;;;5.82;;
41043;SDS011;51680;49.806;18.774;2023-04-03T02:26:53;8.68;;;6.05;;
41043;SDS011;51680;49.806;18.774;2023-04-03T02:29:55;9.55;;;6.78;;
41043;SDS011;51680;49.806;18.774;2023-04-03T02:32:58;9.27;;;6.65;;
41043;SDS011;51680;49.806;18.774;2023-04-03T02:36:01;9.80;;;6.63;;
41043;SDS011;51680;49.806;18.774;2023-04-03T02:39:03;11.15;;;7.30;;
41043;SDS011;51680;49.806;18.774;2023-04-03T02:42:05;10.45;;;6.70;;
41043;SDS011;51680;49.806;18.774;2023-04-03T02:45:08;11.10;;;7.28;;
41043;SDS011;51680;49.806;18.774;2023-04-03T02:48:12;15.10;;;7.85;;
41043;SDS011;51680;49.806;18.774;2023-04-03T02:51:14;10.82;;;7.45;;
41043;SDS011;51680;49.806;18.774;2023-04-03T02:54:16;11.27;;;7.82;;
41043;SDS011;51680;49.806;18.774;2023-04-03T02:57:23;10.80;;;7.88;;
41043;SDS011;51680;49.806;18.774;2023-04-03T03:00:24;11.38;;;7.55;;
41043;SDS011;51680;49.806;18.774;2023-04-03T03:03:27;12.65;;;8.27;;
41043;SDS011;51680;49.806;18.774;2023-04-03T03:06:29;11.82;;;7.82;;
41043;SDS011;51680;49.806;18.774;2023-04-03T03:09:31;15.30;;;8.63;;
41043;SDS011;51680;49.806;18.774;2023-04-03T03:12:33;14.43;;;9.07;;
41043;SDS011;51680;49.806;18.774;2023-04-03T03:15:35;13.80;;;9.30;;
41043;SDS011;51680;49.806;18.774;2023-04-03T03:18:38;13.18;;;8.35;;
41043;SDS011;51680;49.806;18.774;2023-04-03T03:21:40;16.20;;;8.50;;
41043;SDS011;51680;49.806;18.774;2023-04-03T03:24:41;14.27;;;8.90;;
41043;SDS011;51680;49.806;18.774;2023-04-03T03:27:43;14.40;;;8.30;;
41043;SDS011;51680;49.806;18.774;2023-04-03T03:30:46;13.20;;;8.40;;
41043;SDS011;51680;49.806;18.774;2023-04-03T03:33:49;10.70;;;6.55;;
41043;SDS011;51680;49.806;18.774;2023-04-03T03:36:51;11.02;;;7.55;;
41043;SDS011;51680;49.806;18.774;2023-04-03T03:39:53;12.18;;;6.20;;
41043;SDS011;51680;49.806;18.774;2023-04-03T03:42:55;9.55;;;5.85;;
41043;SDS011;51680;49.806;18.774;2023-04-03T03:45:57;8.88;;;4.88;;
41043;SDS011;51680;49.806;18.774;2023-04-03T03:49:02;10.75;;;5.10;;
41043;SDS011;51680;49.806;18.774;2023-04-03T03:52:04;8.02;;;5.00;;
41043;SDS011;51680;49.806;18.774;2023-04-03T03:55:06;8.68;;;5.07;;
41043;SDS011;51680;49.806;18.774;2023-04-03T03:58:10;8.88;;;4.72;;
41043;SDS011;51680;49.806;18.774;2023-04-03T04:01:12;7.57;;;4.35;;
41043;SDS011;51680;49.806;18.774;2023-04-03T04:04:21;7.82;;;4.78;;
41043;SDS011;51680;49.806;18.774;2023-04-03T04:07:24;7.82;;;4.57;;
41043;SDS011;51680;49.806;18.774;2023-04-03T04:10:28;10.50;;;4.68;;
41043;SDS011;51680;49.806;18.774;2023-04-03T04:13:31;8.18;;;4.88;;
41043;SDS011;51680;49.806;18.774;2023-04-03T04:16:33;9.40;;;5.00;;
41043;SDS011;51680;49.806;18.774;2023-04-03T04:19:42;11.10;;;5.72;;
41043;SDS011;51680;49.806;18.774;2023-04-03T04:22:45;9.10;;;5.45;;
41043;SDS011;51680;49.806;18.774;2023-04-03T04:25:47;10.32;;;5.70;;
41043;SDS011;51680;49.806;18.774;2023-04-03T04:28:50;16.40;;;6.72;;
41043;SDS011;51680;49.806;18.774;2023-04-03T04:31:53;16.50;;;7.45;;
41043;SDS011;51680;49.806;18.774;2023-04-03T04:34:58;10.57;;;7.22;;
41043;SDS011;51680;49.806;18.774;2023-04-03T04:38:00;13.60;;;7.50;;
41043;SDS011;51680;49.806;18.774;2023-04-03T04:41:03;14.63;;;7.38;;
41043;SDS011;51680;49.806;18.774;2023-04-03T04:44:05;14.85;;;7.13;;
41043;SDS011;51680;49.806;18.774;2023-04-03T04:47:07;10.90;;;7.13;;
41043;SDS011;51680;49.806;18.774;2023-04-03T04:50:11;15.20;;;7.82;;
41043;SDS011;51680;49.806;18.774;2023-04-03T04:53:14;14.63;;;8.20;;
41043;SDS011;51680;49.806;18.774;2023-04-03T04:56:16;13.93;;;7.75;;
41043;SDS011;51680;49.806;18.774;2023-04-03T04:59:19;14.68;;;7.50;;
41043;SDS011;51680;49.806;18.774;2023-04-03T05:02:22;16.65;;;8.00;;
41043;SDS011;51680;49.806;18.774;2023-04-03T05:05:26;12.68;;;7.28;;
41043;SDS011;51680;49.806;18.774;2023-04-03T05:08:28;13.88;;;6.75;;
41043;SDS011;51680;49.806;18.774;2023-04-03T05:11:30;14.45;;;7.10;;
41043;SDS011;51680;49.806;18.774;2023-04-03T05:14:32;14.80;;;7.15;;
41043;SDS011;51680;49.806;18.774;2023-04-03T05:17:38;11.07;;;6.78;;
41043;SDS011;51680;49.806;18.774;2023-04-03T05:20:43;12.57;;;7.03;;
41043;SDS011;51680;49.806;18.774;2023-04-03T05:23:45;11.95;;;6.93;;
41043;SDS011;51680;49.806;18.774;2023-04-03T05:26:48;14.70;;;7.47;;
41043;SDS011;51680;49.806;18.774;2023-04-03T05:29:50;16.92;;;7.70;;
41043;SDS011;51680;49.806;18.774;2023-04-03T05:32:55;11.25;;;7.20;;
41043;SDS011;51680;49.806;18.774;2023-04-03T05:36:11;15.88;;;7.40;;
41043;SDS011;51680;49.806;18.774;2023-04-03T05:39:21;12.23;;;7.85;;
41043;SDS011;51680;49.806;18.774;2023-04-03T05:42:25;12.27;;;7.15;;
41043;SDS011;51680;49.806;18.774;2023-04-03T05:45:27;14.00;;;6.70;;
41043;SDS011;51680;49.806;18.774;2023-04-03T05:48:29;13.82;;;6.80;;
41043;SDS011;51680;49.806;18.774;2023-04-03T05:51:33;13.65;;;6.60;;
41043;SDS011;51680;49.806;18.774;2023-04-03T05:54:56;15.07;;;7.43;;
41043;SDS011;51680;49.806;18.774;2023-04-03T05:58:01;12.90;;;6.80;;
41043;SDS011;51680;49.806;18.774;2023-04-03T06:01:03;15.25;;;7.10;;
41043;SDS011;51680;49.806;18.774;2023-04-03T06:04:06;17.33;;;6.80;;
41043;SDS011;51680;49.806;18.774;2023-04-03T06:07:12;16.40;;;7.10;;
41043;SDS011;51680;49.806;18.774;2023-04-03T06:10:15;13.48;;;6.90;;
41043;SDS011;51680;49.806;18.774;2023-04-03T06:13:18;13.55;;;6.55;;
41043;SDS011;51680;49.806;18.774;2023-04-03T06:16:21;16.08;;;7.32;;
41043;SDS011;51680;49.806;18.774;2023-04-03T06:19:22;14.55;;;6.55;;
41043;SDS011;51680;49.806;18.774;2023-04-03T06:22:30;15.85;;;6.50;;
41043;SDS011;51680;49.806;18.774;2023-04-03T06:25:32;13.60;;;6.72;;
41043;SDS011;51680;49.806;18.774;2023-04-03T06:28:33;13.25;;;6.18;;
41043;SDS011;51680;49.806;18.774;2023-04-03T06:31:35;11.80;;;6.38;;
41043;SDS011;51680;49.806;18.774;2023-04-03T06:34:37;19.90;;;6.85;;
41043;SDS011;51680;49.806;18.774;2023-04-03T06:37:41;15.02;;;6.97;;
41043;SDS011;51680;49.806;18.774;2023-04-03T06:40:42;18.20;;;6.97;;
41043;SDS011;51680;49.806;18.774;2023-04-03T06:43:44;15.52;;;7.13;;
41043;SDS011;51680;49.806;18.774;2023-04-03T06:46:46;16.95;;;7.05;;
41043;SDS011;51680;49.806;18.774;2023-04-03T06:49:48;14.13;;;7.03;;
41043;SDS011;51680;49.806;18.774;2023-04-03T06:52:51;14.73;;;7.43;;
41043;SDS011;51680;49.806;18.774;2023-04-03T06:55:53;16.88;;;6.63;;
41043;SDS011;51680;49.806;18.774;2023-04-03T06:58:55;15.85;;;7.25;;
41043;SDS011;51680;49.806;18.774;2023-04-03T07:02:02;17.27;;;6.95;;
41043;SDS011;51680;49.806;18.774;2023-04-03T07:05:04;13.80;;;7.65;;
41043;SDS011;51680;49.806;18.774;2023-04-03T07:08:08;30.05;;;11.20;;
41043;SDS011;51680;49.806;18.774;2023-04-03T07:11:10;17.95;;;8.38;;
41043;SDS011;51680;49.806;18.774;2023-04-03T07:14:13;15.15;;;7.07;;
41043;SDS011;51680;49.806;18.774;2023-04-03T07:17:15;13.32;;;6.63;;
41043;SDS011;51680;49.806;18.774;2023-04-03T07:20:17;17.88;;;6.93;;
41043;SDS011;51680;49.806;18.774;2023-04-03T07:23:20;22.08;;;8.00;;
41043;SDS011;51680;49.806;18.774;2023-04-03T07:26:23;28.88;;;11.93;;
41043;SDS011;51680;49.806;18.774;2023-04-03T07:32:28;18.08;;;8.73;;
41043;SDS011;51680;49.806;18.774;2023-04-03T07:35:30;11.38;;;6.00;;
41043;SDS011;51680;49.806;18.774;2023-04-03T07:38:33;11.82;;;4.90;;
41043;SDS011;51680;49.806;18.774;2023-04-03T07:41:36;14.70;;;5.78;;
41043;SDS011;51680;49.806;18.774;2023-04-03T07:44:38;11.95;;;4.47;;
41043;SDS011;51680;49.806;18.774;2023-04-03T07:47:40;9.63;;;4.22;;
41043;SDS011;51680;49.806;18.774;2023-04-03T07:50:42;10.35;;;4.32;;
41043;SDS011;51680;49.806;18.774;2023-04-03T07:53:45;14.57;;;6.60;;
41043;SDS011;51680;49.806;18.774;2023-04-03T07:56:48;13.00;;;6.68;;
41043;SDS011;51680;49.806;18.774;2023-04-03T07:59:50;12.95;;;5.82;;
41043;SDS011;51680;49.806;18.774;2023-04-03T08:02:52;13.93;;;6.15;;
41043;SDS011;51680;49.806;18.774;2023-04-03T08:05:53;14.80;;;6.05;;
41043;SDS011;51680;49.806;18.774;2023-04-03T08:08:57;14.93;;;5.97;;
41043;SDS011;51680;49.806;18.774;2023-04-03T08:11:59;11.65;;;5.57;;
41043;SDS011;51680;49.806;18.774;2023-04-03T08:15:01;11.48;;;5.75;;
41043;SDS011;51680;49.806;18.774;2023-04-03T08:18:03;22.67;;;10.80;;
41043;SDS011;51680;49.806;18.774;2023-04-03T08:21:06;14.38;;;7.40;;
41043;SDS011;51680;49.806;18.774;2023-04-03T08:24:10;16.20;;;6.80;;
41043;SDS011;51680;49.806;18.774;2023-04-03T08:27:12;18.52;;;6.75;;
41043;SDS011;51680;49.806;18.774;2023-04-03T08:30:14;16.45;;;7.55;;
41043;SDS011;51680;49.806;18.774;2023-04-03T08:33:16;14.95;;;5.88;;
41043;SDS011;51680;49.806;18.774;2023-04-03T08:36:19;16.70;;;6.78;;
41043;SDS011;51680;49.806;18.774;2023-04-03T08:42:46;15.57;;;7.03;;
41043;SDS011;51680;49.806;18.774;2023-04-03T08:45:59;15.38;;;7.32;;
41043;SDS011;51680;49.806;18.774;2023-04-03T08:49:07;25.42;;;10.38;;
41043;SDS011;51680;49.806;18.774;2023-04-03T08:52:17;16.35;;;8.00;;
41043;SDS011;51680;49.806;18.774;2023-04-03T08:55:23;15.85;;;7.78;;
41043;SDS011;51680;49.806;18.774;2023-04-03T08:58:28;18.98;;;8.88;;
41043;SDS011;51680;49.806;18.774;2023-04-03T09:01:33;13.10;;;5.53;;
41043;SDS011;51680;49.806;18.774;2023-04-03T09:04:37;11.13;;;5.25;;
41043;SDS011;51680;49.806;18.774;2023-04-03T09:07:59;10.52;;;5.10;;
41043;SDS011;51680;49.806;18.774;2023-04-03T09:11:09;11.40;;;4.13;;
41043;SDS011;51680;49.806;18.774;2023-04-03T09:14:18;6.90;;;3.20;;
41043;SDS011;51680;49.806;18.774;2023-04-03T09:17:30;12.32;;;4.57;;
41043;SDS011;51680;49.806;18.774;2023-04-03T09:20:41;10.38;;;3.58;;
41043;SDS011;51680;49.806;18.774;2023-04-03T09:23:47;8.95;;;2.80;;
41043;SDS011;51680;49.806;18.774;2023-04-03T09:26:55;9.35;;;3.75;;
41043;SDS011;51680;49.806;18.774;2023-04-03T09:30:00;8.73;;;2.72;;
41043;SDS011;51680;49.806;18.774;2023-04-03T09:33:03;6.63;;;3.17;;
41043;SDS011;51680;49.806;18.774;2023-04-03T09:36:07;10.23;;;2.80;;
41043;SDS011;51680;49.806;18.774;2023-04-03T09:39:10;10.68;;;3.58;;
41043;SDS011;51680;49.806;18.774;2023-04-03T09:42:16;7.00;;;2.92;;
41043;SDS011;51680;49.806;18.774;2023-04-03T09:45:22;6.28;;;2.60;;
41043;SDS011;51680;49.806;18.774;2023-04-03T09:48:25;5.95;;;1.65;;
41043;SDS011;51680;49.806;18.774;2023-04-03T09:51:28;5.63;;;1.83;;
41043;SDS011;51680;49.806;18.774;2023-04-03T09:54:32;6.38;;;2.10;;
41043;SDS011;51680;49.806;18.774;2023-04-03T09:57:38;7.43;;;2.55;;
41043;SDS011;51680;49.806;18.774;2023-04-03T10:00:41;4.15;;;1.60;;
41043;SDS011;51680;49.806;18.774;2023-04-03T10:03:42;4.78;;;1.98;;
41043;SDS011;51680;49.806;18.774;2023-04-03T10:09:54;7.05;;;2.30;;
41043;SDS011;51680;49.806;18.774;2023-04-03T10:13:04;5.63;;;1.98;;
41043;SDS011;51680;49.806;18.774;2023-04-03T10:16:09;7.38;;;2.65;;
41043;SDS011;51680;49.806;18.774;2023-04-03T10:19:20;4.65;;;1.90;;
41043;SDS011;51680;49.806;18.774;2023-04-03T10:22:37;6.72;;;2.15;;
41043;SDS011;51680;49.806;18.774;2023-04-03T10:25:44;8.93;;;2.47;;
41043;SDS011;51680;49.806;18.774;2023-04-03T10:29:00;3.50;;;1.53;;
41043;SDS011;51680;49.806;18.774;2023-04-03T10:32:15;7.63;;;2.78;;
41043;SDS011;51680;49.806;18.774;2023-04-03T10:35:39;7.80;;;3.05;;
41043;SDS011;51680;49.806;18.774;2023-04-03T10:38:51;5.90;;;2.35;;
41043;SDS011;51680;49.806;18.774;2023-04-03T10:42:02;5.93;;;2.50;;
41043;SDS011;51680;49.806;18.774;2023-04-03T10:45:18;6.70;;;2.50;;
41043;SDS011;51680;49.806;18.774;2023-04-03T10:51:34;9.48;;;3.15;;
41043;SDS011;51680;49.806;18.774;2023-04-03T10:54:43;6.28;;;2.10;;
41043;SDS011;51680;49.806;18.774;2023-04-03T10:57:50;5.72;;;2.47;;
41043;SDS011;51680;49.806;18.774;2023-04-03T11:01:00;6.90;;;2.80;;
41043;SDS011;51680;49.806;18.774;2023-04-03T11:04:07;8.43;;;3.15;;
41043;SDS011;51680;49.806;18.774;2023-04-03T11:07:12;8.40;;;3.13;;
41043;SDS011;51680;49.806;18.774;2023-04-03T11:10:20;5.60;;;2.33;;
41043;SDS011;51680;49.806;18.774;2023-04-03T11:13:26;7.07;;;2.80;;
41043;SDS011;51680;49.806;18.774;2023-04-03T11:16:36;6.22;;;2.80;;
41043;SDS011;51680;49.806;18.774;2023-04-03T11:19:44;7.38;;;3.42;;
41043;SDS011;51680;49.806;18.774;2023-04-03T11:22:52;7.00;;;3.33;;
41043;SDS011;51680;49.806;18.774;2023-04-03T11:26:01;7.05;;;3.00;;
41043;SDS011;51680;49.806;18.774;2023-04-03T11:29:10;6.03;;;3.00;;
41043;SDS011;51680;49.806;18.774;2023-04-03T11:32:25;7.90;;;3.10;;
41043;SDS011;51680;49.806;18.774;2023-04-03T11:35:34;6.80;;;3.10;;
41043;SDS011;51680;49.806;18.774;2023-04-03T11:38:37;9.85;;;3.30;;
41043;SDS011;51680;49.806;18.774;2023-04-03T11:41:43;7.32;;;3.08;;
41043;SDS011;51680;49.806;18.774;2023-04-03T11:44:44;9.80;;;4.38;;
41043;SDS011;51680;49.806;18.774;2023-04-03T11:47:48;9.02;;;3.50;;
41043;SDS011;51680;49.806;18.774;2023-04-03T11:50:51;9.05;;;2.95;;
41043;SDS011;51680;49.806;18.774;2023-04-03T11:53:53;9.80;;;3.97;;
41043;SDS011;51680;49.806;18.774;2023-04-03T11:56:55;8.40;;;3.70;;
41043;SDS011;51680;49.806;18.774;2023-04-03T11:59:56;7.82;;;3.55;;
41043;SDS011;51680;49.806;18.774;2023-04-03T12:03:00;9.68;;;4.32;;
41043;SDS011;51680;49.806;18.774;2023-04-03T12:13:12;6.30;;;2.83;;
41043;SDS011;51680;49.806;18.774;2023-04-03T12:16:19;10.30;;;3.42;;
41043;SDS011;51680;49.806;18.774;2023-04-03T12:19:36;8.00;;;3.80;;
41043;SDS011;51680;49.806;18.774;2023-04-03T12:22:52;7.40;;;2.88;;
41043;SDS011;51680;49.806;18.774;2023-04-03T12:29:29;9.82;;;3.15;;
41043;SDS011;51680;49.806;18.774;2023-04-03T12:32:40;6.05;;;2.83;;
41043;SDS011;51680;49.806;18.774;2023-04-03T12:35:51;8.50;;;2.75;;
41043;SDS011;51680;49.806;18.774;2023-04-03T12:39:06;6.82;;;2.97;;
41043;SDS011;51680;49.806;18.774;2023-04-03T12:42:22;8.60;;;3.88;;
41043;SDS011;51680;49.806;18.774;2023-04-03T12:45:38;7.90;;;2.88;;
41043;SDS011;51680;49.806;18.774;2023-04-03T12:48:47;7.65;;;2.92;;
41043;SDS011;51680;49.806;18.774;2023-04-03T12:51:53;6.03;;;2.95;;
41043;SDS011;51680;49.806;18.774;2023-04-03T12:57:57;5.72;;;2.30;;
41043;SDS011;51680;49.806;18.774;2023-04-03T13:01:16;4.00;;;1.20;;
41043;SDS011;51680;49.806;18.774;2023-04-03T13:04:19;7.43;;;2.00;;
41043;SDS011;51680;49.806;18.774;2023-04-03T13:07:23;4.93;;;1.70;;
41043;SDS011;51680;49.806;18.774;2023-04-03T13:10:29;5.82;;;2.33;;
41043;SDS011;51680;49.806;18.774;2023-04-03T13:13:31;5.25;;;1.85;;
41043;SDS011;51680;49.806;18.774;2023-04-03T13:16:33;5.50;;;1.90;;
41043;SDS011;51680;49.806;18.774;2023-04-03T13:19:35;6.53;;;2.55;;
41043;SDS011;51680;49.806;18.774;2023-04-03T13:22:39;5.82;;;2.83;;
41043;SDS011;51680;49.806;18.774;2023-04-03T13:25:46;8.38;;;2.28;;
41043;SDS011;51680;49.806;18.774;2023-04-03T13:28:49;5.10;;;2.38;;
41043;SDS011;51680;49.806;18.774;2023-04-03T13:31:52;5.45;;;2.53;;
41043;SDS011;51680;49.806;18.774;2023-04-03T13:34:54;6.75;;;3.00;;
41043;SDS011;51680;49.806;18.774;2023-04-03T13:37:59;8.05;;;2.67;;
41043;SDS011;51680;49.806;18.774;2023-04-03T13:41:04;7.55;;;2.90;;
41043;SDS011;51680;49.806;18.774;2023-04-03T13:44:26;7.38;;;3.65;;
41043;SDS011;51680;49.806;18.774;2023-04-03T13:47:37;6.60;;;2.50;;
41043;SDS011;51680;49.806;18.774;2023-04-03T13:50:50;9.90;;;3.03;;
41043;SDS011;51680;49.806;18.774;2023-04-03T13:53:57;6.88;;;3.05;;
41043;SDS011;51680;49.806;18.774;2023-04-03T13:57:01;8.05;;;3.30;;
41043;SDS011;51680;49.806;18.774;2023-04-03T14:00:18;6.43;;;3.30;;
41043;SDS011;51680;49.806;18.774;2023-04-03T14:03:42;7.20;;;3.08;;
41043;SDS011;51680;49.806;18.774;2023-04-03T14:06:46;6.57;;;2.50;;
41043;SDS011;51680;49.806;18.774;2023-04-03T14:09:50;9.48;;;3.17;;
41043;SDS011;51680;49.806;18.774;2023-04-03T14:12:52;18.27;;;4.55;;
41043;SDS011;51680;49.806;18.774;2023-04-03T14:16:14;7.38;;;2.90;;
41043;SDS011;51680;49.806;18.774;2023-04-03T14:19:19;4.55;;;2.10;;
41043;SDS011;51680;49.806;18.774;2023-04-03T14:22:23;6.03;;;2.50;;
41043;SDS011;51680;49.806;18.774;2023-04-03T14:25:29;7.47;;;2.88;;
41043;SDS011;51680;49.806;18.774;2023-04-03T14:28:31;8.80;;;3.03;;
41043;SDS011;51680;49.806;18.774;2023-04-03T14:31:33;6.05;;;3.05;;
41043;SDS011;51680;49.806;18.774;2023-04-03T14:34:35;8.95;;;2.78;;
41043;SDS011;51680;49.806;18.774;2023-04-03T14:37:37;6.00;;;2.88;;
41043;SDS011;51680;49.806;18.774;2023-04-03T14:40:40;7.60;;;3.15;;
41043;SDS011;51680;49.806;18.774;2023-04-03T14:43:42;8.82;;;4.30;;
41043;SDS011;51680;49.806;18.774;2023-04-03T14:46:44;5.75;;;3.25;;
41043;SDS011;51680;49.806;18.774;2023-04-03T14:49:46;8.95;;;3.30;;
41043;SDS011;51680;49.806;18.774;2023-04-03T14:53:07;14.10;;;6.60;;
41043;SDS011;51680;49.806;18.774;2023-04-03T14:56:12;6.00;;;2.97;;
41043;SDS011;51680;49.806;18.774;2023-04-03T14:59:25;13.73;;;6.78;;
41043;SDS011;51680;49.806;18.774;2023-04-03T15:02:28;16.52;;;7.03;;
41043;SDS011;51680;49.806;18.774;2023-04-03T15:05:32;22.75;;;10.43;;
41043;SDS011;51680;49.806;18.774;2023-04-03T15:08:34;19.48;;;8.23;;
41043;SDS011;51680;49.806;18.774;2023-04-03T15:11:37;7.43;;;3.58;;
41043;SDS011;51680;49.806;18.774;2023-04-03T15:14:38;9.10;;;3.45;;
41043;SDS011;51680;49.806;18.774;2023-04-03T15:17:40;7.50;;;3.60;;
41043;SDS011;51680;49.806;18.774;2023-04-03T15:20:43;6.45;;;2.90;;
41043;SDS011;51680;49.806;18.774;2023-04-03T15:23:45;10.07;;;4.07;;
41043;SDS011;51680;49.806;18.774;2023-04-03T15:26:48;8.65;;;4.53;;
41043;SDS011;51680;49.806;18.774;2023-04-03T15:29:50;10.25;;;4.28;;
41043;SDS011;51680;49.806;18.774;2023-04-03T15:32:52;6.60;;;3.13;;
41043;SDS011;51680;49.806;18.774;2023-04-03T15:35:54;6.43;;;2.85;;
41043;SDS011;51680;49.806;18.774;2023-04-03T15:38:56;7.10;;;3.42;;
41043;SDS011;51680;49.806;18.774;2023-04-03T15:41:59;10.35;;;4.15;;
41043;SDS011;51680;49.806;18.774;2023-04-03T15:45:06;11.75;;;3.60;;
41043;SDS011;51680;49.806;18.774;2023-04-03T15:48:09;11.95;;;4.30;;
41043;SDS011;51680;49.806;18.774;2023-04-03T15:51:11;12.82;;;4.30;;
41043;SDS011;51680;49.806;18.774;2023-04-03T15:54:13;5.85;;;3.00;;
41043;SDS011;51680;49.806;18.774;2023-04-03T15:57:16;9.13;;;3.47;;
41043;SDS011;51680;49.806;18.774;2023-04-03T16:00:18;7.50;;;3.75;;
41043;SDS011;51680;49.806;18.774;2023-04-03T16:03:21;7.30;;;3.55;;
41043;SDS011;51680;49.806;18.774;2023-04-03T16:06:25;7.18;;;3.67;;
41043;SDS011;51680;49.806;18.774;2023-04-03T16:09:29;7.93;;;3.45;;
41043;SDS011;51680;49.806;18.774;2023-04-03T16:12:32;9.52;;;3.42;;
41043;SDS011;51680;49.806;18.774;2023-04-03T16:15:34;8.48;;;3.80;;
41043;SDS011;51680;49.806;18.774;2023-04-03T16:18:37;8.68;;;3.33;;
41043;SDS011;51680;49.806;18.774;2023-04-03T16:21:39;10.77;;;4.78;;
41043;SDS011;51680;49.806;18.774;2023-04-03T16:24:41;7.10;;;3.08;;
41043;SDS011;51680;49.806;18.774;2023-04-03T16:27:44;7.25;;;3.20;;
41043;SDS011;51680;49.806;18.774;2023-04-03T16:30:45;8.05;;;4.00;;
41043;SDS011;51680;49.806;18.774;2023-04-03T16:33:49;7.78;;;3.50;;
41043;SDS011;51680;49.806;18.774;2023-04-03T16:36:51;8.88;;;4.50;;
41043;SDS011;51680;49.806;18.774;2023-04-03T16:39:53;14.45;;;6.28;;
41043;SDS011;51680;49.806;18.774;2023-04-03T16:42:56;12.43;;;4.28;;
41043;SDS011;51680;49.806;18.774;2023-04-03T16:45:58;10.02;;;4.65;;
41043;SDS011;51680;49.806;18.774;2023-04-03T16:49:02;7.80;;;3.80;;
41043;SDS011;51680;49.806;18.774;2023-04-03T16:52:04;13.05;;;3.72;;
41043;SDS011;51680;49.806;18.774;2023-04-03T16:55:06;9.27;;;3.90;;
41043;SDS011;51680;49.806;18.774;2023-04-03T16:58:10;10.05;;;3.58;;
41043;SDS011;51680;49.806;18.774;2023-04-03T17:01:12;10.10;;;4.20;;
41043;SDS011;51680;49.806;18.774;2023-04-03T17:04:15;7.55;;;3.92;;
41043;SDS011;51680;49.806;18.774;2023-04-03T17:07:17;9.15;;;3.80;;
41043;SDS011;51680;49.806;18.774;2023-04-03T17:10:19;8.48;;;3.92;;
41043;SDS011;51680;49.806;18.774;2023-04-03T17:13:22;12.85;;;5.10;;
41043;SDS011;51680;49.806;18.774;2023-04-03T17:16:32;12.20;;;4.72;;
41043;SDS011;51680;49.806;18.774;2023-04-03T17:19:35;18.55;;;7.53;;
41043;SDS011;51680;49.806;18.774;2023-04-03T17:22:38;17.63;;;7.20;;
41043;SDS011;51680;49.806;18.774;2023-04-03T17:25:39;19.08;;;7.85;;
41043;SDS011;51680;49.806;18.774;2023-04-03T17:28:43;19.48;;;7.18;;
41043;SDS011;51680;49.806;18.774;2023-04-03T17:31:44;33.72;;;11.45;;
41043;SDS011;51680;49.806;18.774;2023-04-03T17:34:46;22.92;;;8.80;;
41043;SDS011;51680;49.806;18.774;2023-04-03T17:37:48;27.58;;;10.13;;
41043;SDS011;51680;49.806;18.774;2023-04-03T17:40:50;17.33;;;6.63;;
41043;SDS011;51680;49.806;18.774;2023-04-03T17:43:53;12.52;;;5.72;;
41043;SDS011;51680;49.806;18.774;2023-04-03T17:46:56;10.80;;;5.18;;
41043;SDS011;51680;49.806;18.774;2023-04-03T17:49:58;13.02;;;6.05;;
41043;SDS011;51680;49.806;18.774;2023-04-03T17:52:59;12.13;;;5.95;;
41043;SDS011;51680;49.806;18.774;2023-04-03T17:56:04;12.45;;;5.55;;
41043;SDS011;51680;49.806;18.774;2023-04-03T17:59:08;11.50;;;5.72;;
41043;SDS011;51680;49.806;18.774;2023-04-03T18:02:10;14.63;;;6.20;;
41043;SDS011;51680;49.806;18.774;2023-04-03T18:05:12;19.08;;;7.90;;
41043;SDS011;51680;49.806;18.774;2023-04-03T18:08:13;17.27;;;7.50;;
41043;SDS011;51680;49.806;18.774;2023-04-03T18:11:16;17.90;;;6.25;;
41043;SDS011;51680;49.806;18.774;2023-04-03T18:14:20;8.90;;;4.00;;
41043;SDS011;51680;49.806;18.774;2023-04-03T18:17:24;12.65;;;5.07;;
41043;SDS011;51680;49.806;18.774;2023-04-03T18:20:26;12.50;;;5.13;;
41043;SDS011;51680;49.806;18.774;2023-04-03T18:23:28;11.85;;;4.60;;
41043;SDS011;51680;49.806;18.774;2023-04-03T18:26:32;26.58;;;9.93;;
41043;SDS011;51680;49.806;18.774;2023-04-03T18:29:36;22.95;;;7.80;;
41043;SDS011;51680;49.806;18.774;2023-04-03T18:32:40;12.10;;;5.28;;
41043;SDS011;51680;49.806;18.774;2023-04-03T18:35:42;22.00;;;9.07;;